Time;durP1;ratioP1;P1;durP2;ratioP2;P2;SDS_P1;SDS_P2;PMS_P1;PMS_P2;Temp;Humidity;BMP_temperature;BMP_pressure;BME280_temperature;BME280_humidity;BME280_pressure;Samples;Min_cycle;Max_cycle;Signal;HPM_P1;HPM_P2
2023/04/04 00:00:35;;;;;;;5.30;2.10;;;-0.10;99.90;;;;;;5055586;28;20492;-67
2023/04/04 00:03:01;;;;;;;1.83;1.60;;;-0.10;99.90;;;;;;5058138;28;20459;-67
2023/04/04 00:05:27;;;;;;;6.43;2.40;;;-0.10;99.90;;;;;;5059048;28;20421;-69
2023/04/04 00:07:53;;;;;;;6.47;1.67;;;-0.10;99.90;;;;;;5059494;28;20222;-67
2023/04/04 00:10:19;;;;;;;4.70;2.60;;;-0.20;99.90;;;;;;5057006;28;20182;-68
2023/04/04 00:12:45;;;;;;;4.23;2.20;;;-0.10;99.90;;;;;;5058512;28;20425;-69
2023/04/04 00:15:11;;;;;;;4.40;1.80;;;-0.20;99.90;;;;;;5057804;28;20159;-68
2023/04/04 00:17:36;;;;;;;1.93;1.47;;;-0.20;99.90;;;;;;5060317;28;20409;-67
2023/04/04 00:20:03;;;;;;;3.80;1.93;;;-0.20;99.90;;;;;;5059143;28;20179;-68
2023/04/04 00:22:28;;;;;;;4.17;2.83;;;-0.20;99.90;;;;;;5057530;28;20469;-67
2023/04/04 00:24:54;;;;;;;2.77;1.63;;;-0.20;99.90;;;;;;5057081;28;20424;-68
2023/04/04 00:27:20;;;;;;;4.03;2.30;;;-0.30;99.90;;;;;;5057024;28;20264;-68
2023/04/04 00:29:46;;;;;;;2.20;1.73;;;-0.30;99.90;;;;;;5057501;28;20198;-68
2023/04/04 00:32:11;;;;;;;2.60;1.67;;;-0.30;99.90;;;;;;5057932;28;20448;-69
2023/04/04 00:34:37;;;;;;;2.93;2.07;;;-0.30;99.90;;;;;;5057421;28;20178;-68
2023/04/04 00:37:06;;;;;;;2.07;1.67;;;-0.40;99.90;;;;;;5053588;28;20250;-67
2023/04/04 00:39:32;;;;;;;4.30;3.77;;;-0.40;99.90;;;;;;5053966;28;20220;-69
2023/04/04 00:41:57;;;;;;;6.30;1.93;;;-0.40;99.90;;;;;;5055579;28;20409;-67
2023/04/04 00:44:23;;;;;;;2.60;2.40;;;-0.40;99.90;;;;;;5056740;28;20410;-68
2023/04/04 00:46:51;;;;;;;1.90;1.80;;;-0.50;99.90;;;;;;5057075;28;20263;-68
2023/04/04 00:49:17;;;;;;;2.77;2.57;;;-0.50;99.90;;;;;;5057021;28;20726;-69
2023/04/04 00:51:42;;;;;;;5.13;1.87;;;-0.50;99.90;;;;;;5056868;28;20467;-68
2023/04/04 00:54:08;;;;;;;3.20;2.57;;;-0.60;99.90;;;;;;5054583;28;20441;-69
2023/04/04 00:56:38;;;;;;;5.50;3.30;;;-0.60;99.90;;;;;;5055449;28;20175;-67
2023/04/04 00:59:04;;;;;;;3.33;2.67;;;-0.60;99.90;;;;;;5055631;28;20839;-68
2023/04/04 01:01:31;;;;;;;4.30;2.03;;;-0.60;99.90;;;;;;5055651;28;20425;-68
2023/04/04 01:03:57;;;;;;;2.57;1.50;;;-0.60;99.90;;;;;;5056374;28;20926;-69
2023/04/04 01:06:23;;;;;;;2.90;1.73;;;-0.70;99.90;;;;;;5057527;28;20451;-66
2023/04/04 01:08:51;;;;;;;1.93;1.57;;;-0.70;99.90;;;;;;5058152;28;20502;-68
2023/04/04 01:11:17;;;;;;;1.90;1.70;;;-0.70;99.90;;;;;;5059641;28;20945;-68
2023/04/04 01:13:44;;;;;;;2.30;2.10;;;-0.70;99.90;;;;;;5063984;28;20425;-67
2023/04/04 01:16:09;;;;;;;2.13;1.93;;;-0.80;99.90;;;;;;5060509;28;20410;-68
2023/04/04 01:18:37;;;;;;;3.50;2.50;;;-0.80;99.90;;;;;;5055953;28;20497;-68
2023/04/04 01:21:09;;;;;;;3.50;2.73;;;-0.70;99.90;;;;;;5057347;28;20198;-70
2023/04/04 01:24:03;;;;;;;3.70;2.00;;;-0.70;99.90;;;;;;5056251;28;20512;-68
2023/04/04 01:26:29;;;;;;;1.53;1.40;;;-0.80;99.90;;;;;;5055797;28;20917;-69
2023/04/04 01:28:57;;;;;;;1.37;1.27;;;-0.80;99.90;;;;;;5055182;28;20497;-67
2023/04/04 01:31:30;;;;;;;5.80;2.40;;;-0.90;99.90;;;;;;5056039;28;20413;-69
2023/04/04 01:34:10;;;;;;;2.30;1.70;;;-0.90;99.90;;;;;;5056034;28;20433;-68
2023/04/04 01:36:48;;;;;;;3.90;2.10;;;-0.90;99.90;;;;;;5056121;28;20459;-68
2023/04/04 01:39:26;;;;;;;6.63;2.70;;;-0.90;99.90;;;;;;5056034;28;20413;-67
2023/04/04 01:41:55;;;;;;;6.40;2.00;;;-0.90;99.90;;;;;;5053845;28;20444;-67
2023/04/04 01:44:21;;;;;;;4.07;2.30;;;-1.00;99.90;;;;;;5052226;28;20425;-67
2023/04/04 01:46:54;;;;;;;2.50;2.30;;;-1.00;99.90;;;;;;5053463;28;20416;-67
2023/04/04 01:49:22;;;;;;;2.13;1.57;;;-1.00;99.90;;;;;;5053647;28;20495;-67
2023/04/04 01:51:49;;;;;;;3.17;2.40;;;-1.00;99.90;;;;;;5053591;28;20774;-67
2023/04/04 01:54:17;;;;;;;3.20;1.80;;;-1.00;99.90;;;;;;5053609;28;20469;-68
2023/04/04 01:56:44;;;;;;;3.17;2.17;;;-1.00;99.90;;;;;;5043214;28;20430;-68
2023/04/04 01:59:10;;;;;;;1.70;1.60;;;-1.10;99.90;;;;;;5053751;28;20414;-67
2023/04/04 02:01:35;;;;;;;3.53;2.20;;;-1.10;99.90;;;;;;5053312;28;20965;-67
2023/04/04 02:04:02;;;;;;;7.70;2.27;;;-1.10;99.90;;;;;;5045247;28;20463;-68
2023/04/04 02:06:28;;;;;;;1.87;1.70;;;-1.20;99.90;;;;;;5052524;28;20546;-67
2023/04/04 02:08:55;;;;;;;4.03;2.50;;;-1.20;99.90;;;;;;5051618;28;20457;-67
2023/04/04 02:11:21;;;;;;;3.07;2.17;;;-1.20;99.90;;;;;;5052575;28;20453;-68
2023/04/04 02:13:48;;;;;;;6.17;2.20;;;-1.20;99.90;;;;;;5053142;28;20939;-67
2023/04/04 02:16:14;;;;;;;3.10;2.20;;;-1.30;99.90;;;;;;5052907;28;20504;-67
2023/04/04 02:18:40;;;;;;;4.27;2.60;;;-1.20;99.90;;;;;;5052835;28;20413;-67
2023/04/04 02:21:06;;;;;;;6.23;4.20;;;-1.20;99.90;;;;;;5052799;28;20504;-68
2023/04/04 02:23:31;;;;;;;3.87;2.40;;;-1.30;99.90;;;;;;5052686;28;20467;-67
2023/04/04 02:25:57;;;;;;;3.20;2.80;;;-1.20;99.90;;;;;;5052659;28;20175;-67
2023/04/04 02:28:22;;;;;;;2.10;1.93;;;-1.30;99.90;;;;;;5052704;28;20229;-67
2023/04/04 02:30:48;;;;;;;3.93;2.47;;;-1.30;99.90;;;;;;5053489;28;20167;-68
2023/04/04 02:33:13;;;;;;;2.63;2.43;;;-1.40;99.90;;;;;;5052216;28;20277;-68
2023/04/04 02:35:39;;;;;;;3.97;1.80;;;-1.40;99.90;;;;;;5052272;28;20684;-68
2023/04/04 02:38:05;;;;;;;3.00;2.70;;;-1.40;99.90;;;;;;5052275;28;20494;-67
2023/04/04 02:40:31;;;;;;;2.30;2.00;;;-1.40;99.90;;;;;;5053488;28;20193;-68
2023/04/04 02:42:56;;;;;;;2.40;2.17;;;-1.50;99.90;;;;;;5052280;28;20274;-68
2023/04/04 02:45:22;;;;;;;3.10;2.27;;;-1.40;99.90;;;;;;5051029;28;20183;-67
2023/04/04 02:47:51;;;;;;;3.93;3.37;;;-1.40;99.90;;;;;;5052020;28;20915;-67
2023/04/04 02:50:17;;;;;;;5.63;2.23;;;-1.50;99.90;;;;;;5052117;28;20167;-67
2023/04/04 02:52:43;;;;;;;3.47;2.10;;;-1.50;99.90;;;;;;5052301;28;20930;-68
2023/04/04 02:55:08;;;;;;;5.90;3.43;;;-1.40;99.90;;;;;;5052379;28;20417;-67
2023/04/04 02:57:34;;;;;;;2.47;2.27;;;-1.50;99.90;;;;;;5052529;28;20698;-67
2023/04/04 03:00:02;;;;;;;2.60;2.40;;;-1.50;99.90;;;;;;5054708;28;20177;-67
2023/04/04 03:02:28;;;;;;;7.37;2.90;;;-1.50;99.90;;;;;;5052198;28;20601;-67
2023/04/04 03:04:53;;;;;;;2.23;2.00;;;-1.50;99.90;;;;;;5051611;28;20428;-68
2023/04/04 03:07:20;;;;;;;8.60;2.60;;;-1.50;99.90;;;;;;5051292;28;20673;-70
2023/04/04 03:09:46;;;;;;;5.60;2.53;;;-1.50;99.90;;;;;;5051314;28;20261;-67
2023/04/04 03:12:12;;;;;;;1.80;1.70;;;-1.50;99.90;;;;;;5052371;28;20491;-67
2023/04/04 03:14:37;;;;;;;2.60;1.87;;;-1.50;99.90;;;;;;5054657;28;20645;-67
2023/04/04 03:17:03;;;;;;;2.33;2.13;;;-1.50;99.90;;;;;;5062318;28;20201;-67
2023/04/04 03:19:29;;;;;;;2.57;2.37;;;-1.50;99.90;;;;;;5062466;28;20179;-67
2023/04/04 03:21:55;;;;;;;2.73;2.17;;;-1.60;99.90;;;;;;5062062;28;20409;-67
2023/04/04 03:24:21;;;;;;;5.63;4.03;;;-1.60;99.90;;;;;;5057489;28;20616;-67
2023/04/04 03:26:47;;;;;;;2.20;1.63;;;-1.60;99.90;;;;;;5052255;28;20313;-69
2023/04/04 03:29:12;;;;;;;1.60;1.50;;;-1.60;99.90;;;;;;5052151;28;21038;-67
2023/04/04 03:31:38;;;;;;;1.60;1.50;;;-1.60;99.90;;;;;;5052037;28;20175;-67
2023/04/04 03:34:04;;;;;;;4.93;2.33;;;-1.70;99.90;;;;;;5052103;28;20198;-68
2023/04/04 03:36:30;;;;;;;5.63;2.73;;;-1.70;99.90;;;;;;5045629;28;20253;-69
2023/04/04 03:38:56;;;;;;;3.83;2.30;;;-1.70;99.90;;;;;;5046209;28;20970;-67
2023/04/04 03:41:21;;;;;;;2.20;1.90;;;-1.70;99.90;;;;;;5039805;28;20432;-67
2023/04/04 03:43:47;;;;;;;2.47;2.10;;;-1.70;99.90;;;;;;5040439;28;20207;-68
2023/04/04 03:46:13;;;;;;;3.27;2.37;;;-1.80;99.90;;;;;;5048793;28;20171;-67
2023/04/04 03:48:39;;;;;;;2.87;1.73;;;-1.70;99.90;;;;;;5052104;28;20460;-67
2023/04/04 03:51:05;;;;;;;3.40;3.03;;;-1.80;99.90;;;;;;5073601;22;20261;-72
2023/04/04 03:53:31;;;;;;;2.80;2.00;;;-1.70;99.90;;;;;;5048771;28;20422;-73
2023/04/04 03:55:56;;;;;;;3.73;2.13;;;-1.80;99.90;;;;;;5051329;28;20493;-73
2023/04/04 03:58:24;;;;;;;2.10;1.50;;;-1.80;99.90;;;;;;5051480;28;20637;-71
2023/04/04 04:00:50;;;;;;;2.20;2.00;;;-1.80;99.90;;;;;;5045246;28;20175;-71
2023/04/04 04:03:15;;;;;;;3.17;2.00;;;-1.80;99.90;;;;;;5051338;28;20440;-72
2023/04/04 04:05:41;;;;;;;6.03;2.67;;;-1.80;99.90;;;;;;5042928;28;20468;-74
2023/04/04 04:08:06;;;;;;;4.67;2.80;;;-1.90;99.90;;;;;;5044726;28;20206;-73
2023/04/04 04:10:33;;;;;;;4.63;2.13;;;-1.90;99.90;;;;;;5047901;28;20594;-72
2023/04/04 04:12:58;;;;;;;2.57;2.37;;;-1.80;99.90;;;;;;5048606;28;20190;-72
2023/04/04 04:15:24;;;;;;;2.60;1.73;;;-1.90;99.90;;;;;;5049831;28;20976;-73
2023/04/04 04:17:50;;;;;;;2.50;1.90;;;-1.90;99.90;;;;;;5050319;28;20178;-72
2023/04/04 04:20:15;;;;;;;3.87;1.97;;;-1.90;99.90;;;;;;5051565;28;20274;-73
2023/04/04 04:22:46;;;;;;;5.43;2.20;;;-1.90;99.90;;;;;;5045725;28;20195;-72
2023/04/04 04:25:12;;;;;;;2.30;2.10;;;-2.00;99.90;;;;;;5046271;28;20211;-72
2023/04/04 04:27:37;;;;;;;1.93;1.83;;;-2.00;99.90;;;;;;5038954;28;20463;-72
2023/04/04 04:30:04;;;;;;;9.47;2.30;;;-2.00;99.90;;;;;;5048455;28;20437;-72
2023/04/04 04:32:29;;;;;;;3.27;2.27;;;-2.00;99.90;;;;;;5053445;28;20568;-71
2023/04/04 04:34:55;;;;;;;3.10;2.57;;;-2.00;99.90;;;;;;5058754;28;20416;-73
2023/04/04 04:37:20;;;;;;;2.17;1.93;;;-2.00;99.90;;;;;;5065135;28;20178;-73
2023/04/04 04:39:46;;;;;;;4.90;3.07;;;-2.00;99.90;;;;;;5066259;28;20205;-73
2023/04/04 04:42:12;;;;;;;3.83;2.53;;;-2.00;99.90;;;;;;5066306;28;20199;-73
2023/04/04 04:44:37;;;;;;;5.80;2.30;;;-2.00;99.90;;;;;;5060103;28;20236;-71
2023/04/04 04:47:03;;;;;;;2.83;2.03;;;-2.00;99.90;;;;;;5059608;28;20190;-71
2023/04/04 04:49:29;;;;;;;7.17;2.83;;;-1.90;99.90;;;;;;5060222;28;20591;-72
2023/04/04 04:51:55;;;;;;;5.23;2.60;;;-1.90;99.90;;;;;;5062006;28;20213;-70
2023/04/04 04:54:20;;;;;;;5.33;2.67;;;-1.80;99.90;;;;;;5056575;28;20258;-70
2023/04/04 04:56:46;;;;;;;3.80;2.00;;;-1.80;99.90;;;;;;5051387;28;20433;-71
2023/04/04 04:59:12;;;;;;;4.00;1.67;;;-1.80;99.90;;;;;;5053025;28;20171;-70
2023/04/04 05:01:38;;;;;;;5.53;2.40;;;-1.80;99.90;;;;;;5044757;28;20186;-71
2023/04/04 05:04:03;;;;;;;3.10;2.03;;;-1.80;99.90;;;;;;5037211;28;20429;-70
2023/04/04 05:06:29;;;;;;;3.43;2.10;;;-1.80;99.90;;;;;;5051507;28;20657;-71
2023/04/04 05:08:55;;;;;;;3.13;1.97;;;-1.70;99.90;;;;;;5051513;28;20493;-71
2023/04/04 05:11:20;;;;;;;3.43;2.63;;;-1.70;99.90;;;;;;5046965;28;20234;-71
2023/04/04 05:13:46;;;;;;;4.13;2.10;;;-1.70;99.90;;;;;;5053541;28;20167;-72
2023/04/04 05:16:12;;;;;;;3.43;2.13;;;-1.70;99.90;;;;;;5052173;28;20220;-71
2023/04/04 05:18:38;;;;;;;5.90;2.93;;;-1.70;99.90;;;;;;5052077;28;20171;-71
2023/04/04 05:21:03;;;;;;;3.27;2.60;;;-1.60;99.90;;;;;;5054985;28;20754;-71
2023/04/04 05:23:29;;;;;;;2.70;2.10;;;-1.60;99.90;;;;;;5052305;28;20225;-71
2023/04/04 05:25:57;;;;;;;3.03;2.43;;;-1.60;99.90;;;;;;5051969;28;20186;-71
2023/04/04 05:28:23;;;;;;;7.57;3.00;;;-1.60;99.90;;;;;;5041060;28;20211;-71
2023/04/04 05:30:49;;;;;;;4.50;3.10;;;-1.50;99.90;;;;;;5042027;28;20429;-70
2023/04/04 05:33:14;;;;;;;3.70;2.30;;;-1.50;99.90;;;;;;5050680;28;20210;-70
2023/04/04 05:35:40;;;;;;;1.87;1.67;;;-1.40;99.90;;;;;;5040580;28;20467;-70
2023/04/04 05:38:06;;;;;;;11.73;2.43;;;-1.40;99.90;;;;;;5047720;28;20203;-72
2023/04/04 05:40:32;;;;;;;7.37;2.60;;;-1.30;99.90;;;;;;5053298;28;20171;-71
2023/04/04 05:42:58;;;;;;;2.73;1.93;;;-1.30;99.90;;;;;;5052267;28;21012;-71
2023/04/04 05:45:24;;;;;;;3.07;1.93;;;-1.20;99.90;;;;;;5051902;28;20286;-70
2023/04/04 05:47:50;;;;;;;4.27;2.10;;;-1.10;99.90;;;;;;5049327;28;21012;-72
2023/04/04 05:50:16;;;;;;;3.60;2.20;;;-1.00;99.90;;;;;;5052518;28;20448;-70
2023/04/04 05:52:42;;;;;;;4.00;2.80;;;-0.80;99.90;;;;;;5050291;28;20489;-73
2023/04/04 05:55:07;;;;;;;3.63;3.00;;;0.10;99.90;;;;;;5050317;28;20221;-71
2023/04/04 05:57:33;;;;;;;7.87;3.20;;;0.80;99.90;;;;;;5050120;28;20209;-70
2023/04/04 05:59:59;;;;;;;3.70;2.60;;;1.10;99.90;;;;;;5051095;28;20179;-70
2023/04/04 06:02:25;;;;;;;4.73;2.53;;;1.60;99.90;;;;;;5051142;28;20285;-70
2023/04/04 06:04:50;;;;;;;3.30;2.47;;;2.40;99.90;;;;;;5051382;28;20593;-71
2023/04/04 06:07:17;;;;;;;4.57;2.20;;;3.30;99.90;;;;;;5049289;28;20461;-71
2023/04/04 06:09:43;;;;;;;9.40;3.20;;;3.80;99.90;;;;;;5045277;28;20172;-71
2023/04/04 06:12:08;;;;;;;2.60;2.30;;;4.10;99.90;;;;;;5032858;28;20461;-71
2023/04/04 06:14:37;;;;;;;4.03;2.43;;;4.40;99.90;;;;;;5026460;28;20482;-71
2023/04/04 06:17:03;;;;;;;4.50;3.23;;;4.80;99.90;;;;;;5042610;28;20182;-71
2023/04/04 06:19:29;;;;;;;4.10;3.10;;;4.20;99.90;;;;;;5049381;28;20803;-70
2023/04/04 06:21:55;;;;;;;11.53;3.87;;;5.20;99.90;;;;;;5050262;28;20437;-69
2023/04/04 06:24:20;;;;;;;6.07;2.10;;;6.10;99.90;;;;;;5050663;28;20180;-70
2023/04/04 06:26:50;;;;;;;2.43;2.23;;;6.10;99.90;;;;;;5050357;28;20186;-69
2023/04/04 06:29:16;;;;;;;7.03;2.47;;;6.20;99.90;;;;;;5043151;28;20206;-70
2023/04/04 06:31:42;;;;;;;2.40;2.20;;;6.40;99.90;;;;;;5050009;28;20433;-69
2023/04/04 06:34:08;;;;;;;3.93;2.50;;;6.20;99.90;;;;;;5031832;28;20536;-70
2023/04/04 06:36:34;;;;;;;4.83;3.23;;;6.60;99.90;;;;;;5050301;28;20670;-72
2023/04/04 06:39:00;;;;;;;3.03;2.23;;;6.80;99.90;;;;;;5049418;28;20170;-70
2023/04/04 06:41:26;;;;;;;3.90;1.80;;;6.60;99.90;;;;;;5050478;28;20198;-71
2023/04/04 06:43:51;;;;;;;4.90;3.20;;;6.90;99.90;;;;;;5049808;28;20401;-70
2023/04/04 06:46:17;;;;;;;8.50;2.47;;;7.30;99.90;;;;;;5050525;28;20544;-71
2023/04/04 06:48:43;;;;;;;5.80;2.53;;;7.60;99.90;;;;;;5045146;28;20328;-70
2023/04/04 06:51:10;;;;;;;4.20;2.73;;;6.40;99.90;;;;;;5034273;28;20175;-71
2023/04/04 06:53:36;;;;;;;3.30;2.60;;;7.10;99.90;;;;;;5048621;28;20460;-71
2023/04/04 06:56:03;;;;;;;2.00;1.47;;;6.40;99.90;;;;;;5047929;28;20429;-72
2023/04/04 06:58:29;;;;;;;8.33;2.60;;;6.70;99.90;;;;;;5049347;28;20420;-69
2023/04/04 07:00:58;;;;;;;2.83;2.40;;;7.50;99.90;;;;;;5051002;28;20410;-71
2023/04/04 07:03:25;;;;;;;1.83;1.40;;;7.70;99.90;;;;;;5053059;28;20463;-69
2023/04/04 07:05:51;;;;;;;5.17;2.50;;;7.60;99.90;;;;;;5049732;28;20421;-71
2023/04/04 07:08:16;;;;;;;3.20;2.53;;;7.90;99.90;;;;;;5040210;28;20956;-70
2023/04/04 07:10:42;;;;;;;4.37;1.97;;;8.40;99.90;;;;;;5052114;28;20534;-70
2023/04/04 07:13:08;;;;;;;3.20;1.57;;;9.10;99.90;;;;;;5050277;28;20206;-77
2023/04/04 07:15:34;;;;;;;2.47;1.80;;;8.60;99.90;;;;;;5040530;28;20208;-77
2023/04/04 07:18:00;;;;;;;9.40;2.20;;;8.50;99.90;;;;;;5050962;28;20450;-76
2023/04/04 07:20:27;;;;;;;2.10;1.83;;;9.10;99.90;;;;;;5050404;28;20423;-75
2023/04/04 07:22:53;;;;;;;2.47;1.53;;;8.50;99.90;;;;;;5048016;28;20482;-74
2023/04/04 07:25:18;;;;;;;2.83;2.03;;;9.20;99.90;;;;;;5049337;28;20849;-72
2023/04/04 07:27:44;;;;;;;3.23;1.93;;;8.30;99.90;;;;;;5048653;28;20564;-67
2023/04/04 07:30:10;;;;;;;2.33;1.50;;;7.40;99.90;;;;;;5045230;28;20263;-68
2023/04/04 07:32:36;;;;;;;3.43;1.40;;;9.00;99.90;;;;;;5047254;28;20587;-71
2023/04/04 07:35:04;;;;;;;3.23;2.00;;;10.00;99.90;;;;;;5044850;28;20425;-69
2023/04/04 07:37:29;;;;;;;3.57;1.50;;;11.20;99.90;;;;;;5049715;28;20440;-68
2023/04/04 07:39:55;;;;;;;4.53;1.93;;;11.50;98.90;;;;;;5046309;28;20797;-69
2023/04/04 07:42:24;;;;;;;4.40;1.87;;;9.80;99.70;;;;;;5049998;28;20277;-70
2023/04/04 07:44:50;;;;;;;5.00;1.47;;;9.00;99.90;;;;;;5048299;28;20432;-68
2023/04/04 07:47:17;;;;;;;2.60;1.40;;;8.90;99.90;;;;;;5047119;28;20435;-69
2023/04/04 07:49:42;;;;;;;2.43;1.43;;;9.60;99.90;;;;;;5047546;28;20491;-70
2023/04/04 07:52:08;;;;;;;2.20;1.50;;;8.60;99.90;;;;;;5037632;28;20606;-69
2023/04/04 07:54:34;;;;;;;2.40;1.27;;;8.90;99.90;;;;;;5049860;28;20188;-69
2023/04/04 07:57:00;;;;;;;2.87;1.20;;;7.90;99.90;;;;;;5048158;28;20184;-69
2023/04/04 07:59:26;;;;;;;5.03;1.63;;;8.80;99.90;;;;;;5051264;28;20494;-69
2023/04/04 08:01:52;;;;;;;4.33;1.90;;;8.80;99.90;;;;;;5046155;28;20446;-70
2023/04/04 08:04:17;;;;;;;3.47;1.20;;;9.40;99.50;;;;;;5045131;28;20358;-70
2023/04/04 08:06:43;;;;;;;1.20;1.03;;;8.60;99.90;;;;;;5053935;28;20169;-70
2023/04/04 08:09:08;;;;;;;1.90;1.43;;;8.80;99.90;;;;;;5047936;28;20208;-71
2023/04/04 08:11:35;;;;;;;1.70;1.27;;;8.80;99.90;;;;;;5052781;28;20640;-71
2023/04/04 08:14:01;;;;;;;1.50;1.27;;;9.10;99.90;;;;;;5053012;28;20276;-71
2023/04/04 08:16:27;;;;;;;3.40;1.47;;;9.20;99.20;;;;;;5053569;28;20428;-69
2023/04/04 08:18:53;;;;;;;3.20;1.77;;;9.60;99.70;;;;;;5051793;28;20444;-71
2023/04/04 08:21:18;;;;;;;1.53;1.40;;;9.30;99.60;;;;;;5051758;28;20206;-69
2023/04/04 08:23:44;;;;;;;2.63;1.67;;;9.90;99.40;;;;;;5052245;28;20186;-69
2023/04/04 08:26:11;;;;;;;2.13;1.27;;;8.30;99.80;;;;;;5054513;28;20168;-69
2023/04/04 08:28:37;;;;;;;1.30;1.10;;;8.80;98.90;;;;;;5050936;28;20471;-70
2023/04/04 08:31:03;;;;;;;1.57;1.30;;;9.10;98.70;;;;;;5054401;28;20403;-70
2023/04/04 08:33:29;;;;;;;3.37;1.33;;;9.20;98.00;;;;;;5052154;28;20434;-69
2023/04/04 08:35:57;;;;;;;1.73;1.33;;;9.70;97.50;;;;;;5050690;28;20455;-69
2023/04/04 08:38:22;;;;;;;1.63;1.33;;;9.60;96.60;;;;;;5051333;28;20417;-69
2023/04/04 08:40:52;;;;;;;3.07;1.10;;;9.80;95.60;;;;;;5052619;28;20718;-69
2023/04/04 08:43:20;;;;;;;1.37;1.13;;;9.80;95.80;;;;;;5054984;28;20254;-69
2023/04/04 08:45:48;;;;;;;3.23;1.27;;;8.70;97.20;;;;;;5036937;28;20944;-71
2023/04/04 08:48:18;;;;;;;1.87;1.27;;;9.20;96.40;;;;;;5052169;28;20449;-71
2023/04/04 08:50:45;;;;;;;1.90;1.23;;;9.20;96.60;;;;;;5048828;28;20419;-70
2023/04/04 08:53:12;;;;;;;2.20;1.30;;;9.50;98.20;;;;;;5052610;28;21068;-70
2023/04/04 08:55:48;;;;;;;2.10;1.40;;;9.90;97.10;;;;;;5034779;28;20519;-71
2023/04/04 08:58:16;;;;;;;1.40;1.03;;;9.50;95.20;;;;;;5052878;28;20842;-70
2023/04/04 09:00:42;;;;;;;2.23;2.03;;;9.40;94.60;;;;;;5050296;28;20421;-72
2023/04/04 09:03:16;;;;;;;6.00;1.57;;;8.70;94.30;;;;;;5052584;28;20521;-71
2023/04/04 09:05:43;;;;;;;1.33;1.23;;;9.40;96.70;;;;;;5043588;28;20181;-72
2023/04/04 09:08:11;;;;;;;1.80;1.40;;;10.80;94.40;;;;;;5034456;28;21010;-71
2023/04/04 09:10:37;;;;;;;1.40;1.27;;;10.20;93.30;;;;;;5052429;28;20527;-71
2023/04/04 09:13:03;;;;;;;2.93;1.30;;;10.60;91.50;;;;;;5052819;28;20455;-71
2023/04/04 09:15:31;;;;;;;2.20;1.50;;;10.60;92.10;;;;;;5053208;28;20913;-71
2023/04/04 09:17:57;;;;;;;2.03;1.20;;;10.50;89.80;;;;;;5052362;28;20414;-71
2023/04/04 09:20:40;;;;;;;3.80;1.40;;;10.70;90.70;;;;;;5053099;28;20419;-72
2023/04/04 09:23:08;;;;;;;3.47;1.93;;;9.90;90.40;;;;;;5048019;28;20185;-70
2023/04/04 09:25:35;;;;;;;1.73;1.30;;;9.50;92.60;;;;;;5053126;28;20408;-72
2023/04/04 09:28:03;;;;;;;3.70;1.50;;;9.90;92.10;;;;;;5045941;28;20916;-72
2023/04/04 09:30:29;;;;;;;1.70;1.23;;;10.50;89.10;;;;;;5053303;28;20410;-71
2023/04/04 09:32:56;;;;;;;2.17;1.10;;;10.10;90.50;;;;;;5055439;28;20451;-74
2023/04/04 09:35:22;;;;;;;2.80;1.57;;;9.60;90.10;;;;;;5055361;28;20213;-71
2023/04/04 09:37:48;;;;;;;1.20;1.10;;;8.50;92.00;;;;;;5056445;28;20421;-71
2023/04/04 09:40:14;;;;;;;1.43;1.30;;;8.70;91.50;;;;;;5058353;28;20244;-70
2023/04/04 09:42:40;;;;;;;3.13;1.40;;;8.60;90.80;;;;;;5054265;28;20550;-70
2023/04/04 09:45:08;;;;;;;1.97;1.00;;;9.00;90.70;;;;;;5047797;28;20436;-71
2023/04/04 09:47:41;;;;;;;2.07;0.90;;;9.00;91.80;;;;;;5056517;28;20510;-71
2023/04/04 09:50:07;;;;;;;1.10;0.97;;;8.90;91.20;;;;;;5055821;28;20919;-72
2023/04/04 09:52:34;;;;;;;1.63;1.03;;;9.20;91.30;;;;;;5050066;28;20976;-70
2023/04/04 09:55:02;;;;;;;2.10;1.20;;;9.60;89.20;;;;;;5050863;28;20417;-70
2023/04/04 09:57:33;;;;;;;2.63;1.53;;;8.10;88.90;;;;;;5044963;28;20834;-70
2023/04/04 10:00:02;;;;;;;3.40;1.43;;;7.70;90.80;;;;;;5047890;28;20928;-70
2023/04/04 10:02:31;;;;;;;1.73;1.17;;;7.70;91.70;;;;;;5053048;28;20429;-71
2023/04/04 10:04:57;;;;;;;1.57;1.40;;;8.10;91.50;;;;;;5051508;28;20426;-70
2023/04/04 10:07:29;;;;;;;1.93;1.30;;;7.70;91.50;;;;;;5052169;28;20526;-70
2023/04/04 10:09:56;;;;;;;1.10;0.93;;;8.00;91.60;;;;;;5051976;28;20828;-70
2023/04/04 10:12:23;;;;;;;2.17;1.10;;;8.00;91.10;;;;;;5051962;28;20433;-70
2023/04/04 10:14:58;;;;;;;2.73;1.10;;;7.90;91.80;;;;;;5051997;28;20499;-69
2023/04/04 10:17:38;;;;;;;1.73;1.30;;;7.90;91.70;;;;;;5050867;28;20408;-70
2023/04/04 10:20:05;;;;;;;2.63;1.07;;;8.00;91.60;;;;;;5044573;28;20421;-69
2023/04/04 10:22:35;;;;;;;1.20;0.97;;;7.90;91.30;;;;;;5050688;28;20809;-68
2023/04/04 10:25:02;;;;;;;1.50;1.40;;;7.70;90.80;;;;;;5050542;28;20438;-69
2023/04/04 10:27:27;;;;;;;1.30;1.10;;;7.40;90.50;;;;;;5049572;28;20982;-69
2023/04/04 10:29:53;;;;;;;1.47;1.27;;;6.80;90.10;;;;;;5050178;28;20410;-68
2023/04/04 10:32:28;;;;;;;1.90;0.97;;;6.70;88.10;;;;;;5048578;28;20195;-69
2023/04/04 10:35:04;;;;;;;2.40;1.50;;;6.80;88.60;;;;;;5050780;28;20166;-69
2023/04/04 10:37:37;;;;;;;3.70;1.40;;;6.90;89.30;;;;;;5049488;28;20426;-69
2023/04/04 10:40:13;;;;;;;1.30;1.20;;;7.40;88.90;;;;;;5046085;28;20517;-69
2023/04/04 10:42:45;;;;;;;3.70;1.10;;;7.30;90.10;;;;;;5049527;28;20453;-69
2023/04/04 10:45:13;;;;;;;1.40;1.27;;;7.30;89.00;;;;;;5048752;28;21042;-70
2023/04/04 10:47:40;;;;;;;1.70;1.20;;;7.20;90.30;;;;;;5044332;28;20503;-68
2023/04/04 10:50:09;;;;;;;4.77;1.67;;;7.70;91.30;;;;;;5050359;28;20409;-70
2023/04/04 10:52:37;;;;;;;1.63;1.30;;;7.30;91.70;;;;;;5048702;28;20455;-68
2023/04/04 10:55:07;;;;;;;2.63;1.77;;;7.50;89.10;;;;;;5049752;28;21011;-69
2023/04/04 10:57:37;;;;;;;1.60;1.20;;;6.80;86.40;;;;;;5042557;28;20428;-69
2023/04/04 11:00:08;;;;;;;3.20;1.00;;;6.70;87.20;;;;;;5050808;28;20417;-69
2023/04/04 11:02:53;;;;;;;1.57;1.00;;;6.60;87.70;;;;;;5048817;28;20441;-69
2023/04/04 11:05:24;;;;;;;1.43;1.30;;;7.00;90.00;;;;;;5047660;28;20444;-69
2023/04/04 11:08:05;;;;;;;1.87;1.00;;;7.20;90.30;;;;;;5046686;28;20472;-69
2023/04/04 11:10:34;;;;;;;2.50;1.57;;;7.60;90.30;;;;;;5041913;28;20427;-69
2023/04/04 11:13:07;;;;;;;1.70;1.00;;;7.20;90.30;;;;;;5045147;28;20437;-69
2023/04/04 11:16:06;;;;;;;2.07;1.00;;;7.20;90.70;;;;;;5048856;28;20544;-70
2023/04/04 11:18:37;;;;;;;1.50;1.00;;;7.70;91.60;;;;;;5043145;28;20427;-69
2023/04/04 11:21:06;;;;;;;1.40;1.20;;;7.60;90.30;;;;;;5048435;28;20792;-68
2023/04/04 11:23:57;;;;;;;1.03;0.90;;;7.80;88.30;;;;;;5049444;28;20456;-69
2023/04/04 11:26:28;;;;;;;1.27;1.00;;;7.60;85.70;;;;;;5041330;28;20421;-69
2023/04/04 11:28:59;;;;;;;2.40;1.10;;;7.30;85.70;;;;;;5048461;28;20507;-69
2023/04/04 11:31:32;;;;;;;1.93;1.10;;;6.90;86.80;;;;;;5046164;28;20464;-70
2023/04/04 11:34:12;;;;;;;1.73;1.00;;;6.90;86.30;;;;;;5043712;28;20437;-70
2023/04/04 11:36:38;;;;;;;2.30;1.33;;;7.30;87.60;;;;;;5048319;28;20504;-70
2023/04/04 11:39:11;;;;;;;1.00;0.90;;;7.50;86.60;;;;;;5044518;28;20518;-70
2023/04/04 11:42:12;;;;;;;1.77;1.20;;;7.40;85.10;;;;;;5049853;28;20454;-69
2023/04/04 11:44:50;;;;;;;5.33;1.13;;;7.20;86.30;;;;;;5044261;28;20422;-68
2023/04/04 11:47:22;;;;;;;1.30;1.20;;;7.00;87.30;;;;;;5047134;28;20417;-68
2023/04/04 11:49:49;;;;;;;3.43;1.30;;;7.30;87.60;;;;;;5044333;28;20517;-68
2023/04/04 11:52:17;;;;;;;2.50;1.00;;;7.50;85.60;;;;;;5046692;28;20452;-69
2023/04/04 11:54:45;;;;;;;1.23;1.13;;;7.80;85.80;;;;;;5048179;28;20854;-69
2023/04/04 11:57:13;;;;;;;2.33;1.03;;;8.10;84.90;;;;;;5039444;28;20423;-69
2023/04/04 11:59:41;;;;;;;1.53;0.90;;;8.10;84.20;;;;;;5050012;28;20763;-68
2023/04/04 12:02:08;;;;;;;1.40;1.20;;;8.20;82.30;;;;;;5050557;28;20425;-69
2023/04/04 12:04:36;;;;;;;1.23;1.00;;;8.30;83.30;;;;;;5050013;28;20433;-68
2023/04/04 12:07:02;;;;;;;1.30;1.20;;;8.20;84.50;;;;;;5050063;28;20415;-69
2023/04/04 12:09:29;;;;;;;1.90;1.07;;;8.10;81.10;;;;;;5050463;28;20525;-70
2023/04/04 12:11:55;;;;;;;1.80;0.93;;;8.00;79.30;;;;;;5050738;28;20573;-69
2023/04/04 12:14:24;;;;;;;1.13;0.80;;;8.10;77.90;;;;;;5050641;28;20924;-69
2023/04/04 12:16:52;;;;;;;1.80;1.00;;;7.70;77.90;;;;;;5050646;28;20401;-69
2023/04/04 12:19:18;;;;;;;3.07;1.00;;;7.80;77.90;;;;;;5048221;28;20518;-69
2023/04/04 12:21:45;;;;;;;1.03;0.97;;;7.90;79.30;;;;;;5038147;28;20544;-69
2023/04/04 12:24:11;;;;;;;2.00;1.33;;;8.10;77.80;;;;;;5028435;28;20188;-69
2023/04/04 12:26:39;;;;;;;2.60;1.33;;;8.10;75.70;;;;;;5042757;28;20528;-69
2023/04/04 12:29:06;;;;;;;6.10;1.70;;;8.00;76.70;;;;;;5047914;28;20472;-69
2023/04/04 12:31:32;;;;;;;1.67;1.17;;;7.80;79.60;;;;;;5046686;28;20507;-68
2023/04/04 12:33:59;;;;;;;1.67;1.20;;;7.50;81.20;;;;;;5049837;28;20506;-68
2023/04/04 12:36:25;;;;;;;2.47;1.10;;;7.60;82.20;;;;;;5042056;28;20433;-68
2023/04/04 12:39:01;;;;;;;2.10;1.20;;;7.70;82.70;;;;;;5035673;28;20443;-69
2023/04/04 12:41:27;;;;;;;1.47;1.00;;;7.90;82.90;;;;;;5048573;28;20841;-68
2023/04/04 12:44:03;;;;;;;4.40;2.30;;;7.80;81.10;;;;;;5053599;28;20407;-69
2023/04/04 12:46:39;;;;;;;1.60;1.40;;;7.70;82.10;;;;;;5052979;28;20846;-68
2023/04/04 12:49:07;;;;;;;1.50;0.97;;;7.60;81.80;;;;;;5047458;28;20469;-69
2023/04/04 12:51:34;;;;;;;3.70;1.27;;;8.00;82.10;;;;;;5053708;28;20460;-70
2023/04/04 12:54:00;;;;;;;1.90;1.20;;;8.20;81.10;;;;;;5051871;28;20427;-69